Latest Weather Observations for Aireys Inlet

IDV60801

Issued at 6:02 pm EDT Saturday 6 February 2016 (issued every 30 minutes, with the page automatically refreshed every 10 minutes)

About weather observations | Map of weather stations | Latest weather observations for VIC | Other Formats
Station Details ID: 090180 Name: AIREYS INLET Lat: -38.46 Lon: 144.09 Height: 95.0 m
Data from the previous 72 hours. | See also: Recent months at Aireys Inlet
Date/Time
EDT
Temp
°C
App
Temp
°C
Dew
Point
Rel
Hum
%
Delta-T
°C
Wind Press
QNH
hPa
Press
MSL
hPa
Rain
since 9 am
mm
Dir
 
Spd
km/h
Gust
km/h
Spd
kts
Gust
kts
06/06:00pm 24.3 24.1 15.8 59 5.2 SW 11 17 6 9 - - 0.0
06/05:30pm 25.2 25.5 16.9 60 5.2 SW 11 17 6 9 - - 0.0
06/05:00pm 24.7 24.5 16.7 61 4.9 SSW 13 20 7 11 - - 0.0
06/04:30pm 24.3 23.5 16.0 60 5.1 SSW 15 22 8 12 - - 0.0
06/04:00pm 25.4 25.3 16.0 56 5.8 SSW 11 15 6 8 - - 0.0
06/03:30pm 25.8 25.7 16.1 55 6.0 SSW 11 15 6 8 - - 0.0
06/03:00pm 25.6 25.5 15.9 55 5.9 SW 11 19 6 10 - - 0.0
06/02:30pm 26.3 26.5 15.7 52 6.5 SSE 9 15 5 8 - - 0.0
06/02:00pm 24.6 23.8 15.0 55 5.8 E 13 22 7 12 - - 0.0
06/01:30pm 24.0 22.5 15.2 58 5.3 ESE 17 24 9 13 - - 0.0
06/01:00pm 24.2 22.9 15.9 59 5.1 E 17 24 9 13 - - 0.0
06/12:30pm 24.9 24.5 16.1 58 5.4 ENE 13 26 7 14 - - 0.0
06/12:00pm 29.3 27.5 10.9 32 10.6 NW 11 24 6 13 - - 0.0
06/11:30am 27.5 24.5 11.9 38 9.0 NNW 19 32 10 17 - - 0.0
06/11:00am 26.1 23.9 12.2 42 8.0 NW 15 28 8 15 - - 0.0
06/10:30am 24.8 22.5 13.0 47 6.9 NNW 17 24 9 13 - - 0.0
06/10:00am 22.4 22.0 15.3 64 4.2 NE 11 30 6 16 - - 0.0
06/09:30am 20.4 20.8 15.4 73 3.0 ENE 7 13 4 7 - - 0.0
06/09:00am 20.3 21.1 14.7 70 3.3 NE 4 7 2 4 - - 0.0
06/08:30am 18.9 19.1 14.6 76 2.5 NNE 7 11 4 6 - - 0.0
06/08:00am 17.6 17.9 14.5 82 1.8 N 6 9 3 5 - - 0.0
06/07:30am 17.3 18.0 14.4 83 1.7 NNE 4 6 2 3 - - 0.0
06/07:00am 17.2 18.0 14.7 85 1.4 E 4 6 2 3 - - 0.0
06/06:30am 16.9 17.6 14.5 86 1.4 ESE 4 7 2 4 - - 0.0
06/06:00am 16.8 17.1 14.4 86 1.4 ESE 6 9 3 5 - - 0.0
06/05:30am 17.0 17.0 14.3 84 1.6 ESE 7 13 4 7 - - 0.0
06/05:00am 17.0 16.9 13.9 82 1.8 ESE 7 13 4 7 - - 0.0
06/04:30am 17.2 16.4 13.9 81 1.9 ESE 11 19 6 10 - - 0.0
06/04:00am 17.1 16.6 13.8 81 1.9 ESE 9 17 5 9 - - 0.0
06/03:30am 17.3 16.0 13.8 80 2.0 ESE 13 20 7 11 - - 0.0
06/03:00am 17.4 16.0 13.5 78 2.2 ESE 13 20 7 11 - - 0.0
06/02:30am 17.5 16.5 13.4 77 2.3 ESE 11 22 6 12 - - 0.0
06/02:00am 17.7 15.9 13.4 76 2.4 ESE 15 24 8 13 - - 0.0
06/01:30am 17.9 16.3 13.8 77 2.3 ESE 15 28 8 15 - - 0.0
06/01:00am 18.1 16.5 13.8 76 2.5 ESE 15 22 8 12 - - 0.0
06/12:30am 18.3 16.5 14.4 78 2.3 E 17 30 9 16 - - 0.0
06/12:00am 18.4 16.6 14.5 78 2.3 E 17 32 9 17 - - 0.0
 
Date/Time
EDT
Temp
°C
App
Temp
°C
Dew
Point
Rel
Hum
%
Delta-T
°C
Wind Press
QNH
hPa
Press
MSL
hPa
Rain
since 9 am
mm
Dir
 
Spd
km/h
Gust
km/h
Spd
kts
Gust
kts
05/11:30pm 18.5 16.7 14.4 77 2.4 ESE 17 28 9 15 - - 0.0
05/11:00pm 18.5 16.8 14.6 78 2.3 ESE 17 30 9 16 - - 0.0
05/10:30pm 18.6 16.2 14.5 77 2.4 ESE 20 33 11 18 - - 0.0
05/10:00pm 18.8 16.6 14.5 76 2.5 ESE 19 35 10 19 - - 0.0
05/09:30pm 18.9 16.6 14.2 74 2.7 ESE 19 35 10 19 - - 0.0
05/09:00pm 19.0 16.6 13.8 72 3.0 ESE 19 33 10 18 - - 0.0
05/08:30pm 19.2 16.8 13.8 71 3.1 ESE 19 32 10 17 - - 0.0
05/08:00pm 19.7 18.2 14.1 70 3.2 SE 15 28 8 15 - - 0.0
05/07:30pm 20.1 18.2 14.2 69 3.4 SE 17 28 9 15 - - 0.0
05/07:00pm 20.7 19.3 14.6 68 3.6 SE 15 26 8 14 - - 0.0
05/06:30pm 21.3 20.0 14.9 67 3.8 SE 15 30 8 16 - - 0.0
05/06:00pm 21.3 19.7 14.9 67 3.8 SE 17 30 9 16 - - 0.0
05/05:30pm 21.7 20.4 14.8 65 4.1 SE 15 26 8 14 - - 0.0
05/05:00pm 22.3 21.0 14.9 63 4.4 SE 15 24 8 13 - - 0.0
05/04:30pm 22.3 21.5 15.2 64 4.2 SE 13 24 7 13 - - 0.0
05/04:00pm 22.2 21.4 15.1 64 4.2 SSE 13 22 7 12 - - 0.0
05/03:30pm 22.3 20.8 15.4 65 4.1 SSE 17 26 9 14 - - 0.0
05/03:00pm 22.3 20.8 15.2 64 4.2 SSE 17 26 9 14 - - 0.0
05/02:30pm 22.7 21.7 15.5 64 4.3 SSE 15 28 8 15 - - 0.0
05/02:00pm 22.7 22.0 15.3 63 4.4 SSE 13 26 7 14 - - 0.0
05/01:30pm 22.7 21.1 14.0 58 5.1 SSE 15 26 8 14 - - 0.0
05/01:00pm 21.7 20.1 13.9 61 4.5 SE 15 24 8 13 - - 0.0
05/12:30pm 21.7 20.0 13.6 60 4.7 SE 15 24 8 13 - - 0.0
05/12:00pm 21.6 19.8 13.2 59 4.8 SE 15 24 8 13 - - 0.0
05/11:30am 21.3 20.4 13.7 62 4.4 SE 11 20 6 11 - - 0.0
05/11:00am 21.1 19.7 13.5 62 4.4 SE 13 20 7 11 - - 0.0
05/10:30am 20.7 19.3 13.4 63 4.2 SE 13 22 7 12 - - 0.0
05/10:00am 20.2 19.2 13.4 65 3.9 SE 11 19 6 10 - - 0.0
05/09:30am 19.4 17.1 13.1 67 3.6 ESE 17 24 9 13 - - 0.0
05/09:00am 19.2 17.0 13.4 69 3.3 ESE 17 24 9 13 - - 0.0
05/08:30am 19.0 17.5 14.1 73 2.8 ESE 15 26 8 14 - - 0.0
05/08:00am 18.6 18.7 15.5 82 1.8 SE 9 17 5 9 - - 0.0
05/07:30am 17.8 17.1 15.4 86 1.4 SSE 13 20 7 11 - - 0.0
05/07:00am 17.2 16.2 14.7 85 1.4 SSE 13 20 7 11 - - 0.0
05/06:30am 17.1 15.7 14.6 85 1.4 S 15 22 8 12 - - 0.0
05/06:00am 17.0 15.1 14.3 84 1.6 SSE 17 24 9 13 - - 0.0
05/05:30am 16.9 14.9 13.8 82 1.8 SSE 17 26 9 14 - - 0.0
05/05:00am 16.8 14.3 13.5 81 1.9 S 19 28 10 15 - - 0.0
05/04:30am 16.7 14.7 12.8 78 2.2 S 15 24 8 13 - - 0.0
05/04:00am 16.6 14.7 12.9 79 2.1 S 15 20 8 11 - - 0.0
05/03:30am 16.5 14.2 13.0 80 2.0 S 17 28 9 15 - - 0.0
05/03:00am 16.4 14.1 13.1 81 1.8 SSW 17 28 9 15 - - 0.0
05/02:30am 16.4 14.1 12.9 80 2.0 SSW 17 24 9 13 - - 0.0
05/02:00am 16.3 13.5 12.7 79 2.0 SSW 19 30 10 16 - - 0.0
05/01:30am 16.2 13.4 12.6 79 2.0 S 19 28 10 15 - - 0.0
05/01:00am 16.3 13.5 12.5 78 2.1 S 19 26 10 14 - - 0.0
05/12:30am 16.3 13.7 12.1 76 2.3 S 17 26 9 14 - - 0.0
05/12:00am 16.1 13.0 11.7 75 2.4 S 19 26 10 14 - - 0.0
 
Date/Time
EDT
Temp
°C
App
Temp
°C
Dew
Point
Rel
Hum
%
Delta-T
°C
Wind Press
QNH
hPa
Press
MSL
hPa
Rain
since 9 am
mm
Dir
 
Spd
km/h
Gust
km/h
Spd
kts
Gust
kts
04/11:30pm 16.0 12.6 11.4 74 2.5 S 20 30 11 16 - - 0.0
04/11:00pm 16.1 12.7 11.3 73 2.6 S 20 30 11 16 - - 0.0
04/10:30pm 16.3 13.0 11.5 73 2.6 S 20 30 11 16 - - 0.0
04/10:00pm 16.4 13.2 11.1 71 2.9 S 19 32 10 17 - - 0.0
04/09:30pm 16.5 13.3 11.2 71 2.9 S 19 28 10 15 - - 0.0
04/09:00pm 16.6 13.5 11.5 72 2.8 S 19 33 10 18 - - 0.0
04/08:30pm 16.6 12.9 11.5 72 2.8 SSW 22 35 12 19 - - 0.0
04/08:00pm 16.8 12.7 11.5 71 2.9 SSW 24 35 13 19 - - 0.0
04/07:30pm 16.9 13.1 11.2 69 3.1 SSW 22 33 12 18 - - 0.0
04/07:00pm 17.1 12.5 11.2 68 3.2 SSW 26 41 14 22 - - 0.0
04/06:30pm 17.4 12.5 11.2 67 3.4 SSW 28 43 15 23 - - 0.0
04/06:00pm 17.6 13.5 11.4 67 3.4 SSW 24 35 13 19 - - 0.0
04/05:30pm 17.9 13.7 11.0 64 3.7 SSW 24 37 13 20 - - 0.0
04/05:00pm 18.1 13.1 11.0 63 3.9 SSW 28 39 15 21 - - 0.0
04/04:30pm 18.6 14.6 11.9 65 3.7 SSW 24 35 13 19 - - 0.0
04/04:00pm 19.3 15.2 11.6 61 4.3 SSW 24 35 13 19 - - 0.0
04/03:30pm 19.9 15.1 11.7 59 4.6 SSW 28 41 15 22 - - 0.0
04/03:00pm 19.3 14.9 11.6 61 4.3 SSW 26 35 14 19 - - 0.0
04/02:30pm 19.9 16.1 11.1 57 4.8 SSW 22 37 12 20 - - 0.0
04/02:00pm 19.6 15.3 10.9 57 4.8 S 24 33 13 18 - - 0.0
04/01:30pm 19.3 14.7 11.1 59 4.5 S 26 35 14 19 - - 0.0
04/01:00pm 19.1 14.8 10.6 58 4.6 S 24 35 13 19 - - 0.0
04/12:30pm 19.2 14.8 10.5 57 4.7 S 24 37 13 20 - - 0.0
04/12:00pm 19.6 14.7 10.0 54 5.2 S 26 39 14 21 - - 0.0
04/11:30am 19.6 15.3 10.6 56 4.9 S 24 37 13 20 - - 0.0
04/11:00am 18.9 14.2 10.5 58 4.5 S 26 37 14 20 - - 0.0
04/10:30am 17.5 13.0 10.1 62 3.9 S 24 37 13 20 - - 0.0
04/10:00am 17.0 12.7 10.6 66 3.4 SSW 24 39 13 21 - - 0.0
04/09:30am 16.5 12.5 10.6 68 3.2 SSW 22 32 12 17 - - 0.0
04/09:00am 16.2 12.2 10.3 68 3.1 S 22 37 12 20 - - 0.8
04/08:30am 16.1 12.4 10.2 68 3.1 SSW 20 30 11 16 - - 0.8
04/08:00am 15.9 12.3 10.0 68 3.1 S 19 28 10 15 - - 0.8
04/07:30am 15.5 11.3 9.6 68 3.1 S 22 32 12 17 - - 0.8
04/07:00am 15.3 11.5 9.9 70 2.8 S 20 32 11 17 - - 0.8
04/06:30am 15.3 11.3 10.3 72 2.6 S 22 33 12 18 - - 0.8
04/06:00am 15.2 11.1 10.2 72 2.6 S 22 32 12 17 - - 0.8
04/05:30am 15.2 10.7 10.0 71 2.7 S 24 37 13 20 - - 0.8
04/05:00am 15.6 11.3 10.6 72 2.7 S 24 39 13 21 - - 0.8
04/04:30am 15.8 11.1 10.8 72 2.7 S 26 44 14 24 - - 0.8
04/04:00am 15.8 10.6 10.3 70 2.9 SSW 28 39 15 21 - - 0.8
04/03:30am 15.5 10.3 10.3 71 2.7 SSW 28 41 15 22 - - 0.8
04/03:01am 16.0 11.0 11.0 72 2.7 S 28 46 15 25 - - 0.8
04/03:00am 16.0 10.9 10.7 71 2.8 S 28 41 15 22 - - 0.8
04/02:30am 15.7 10.6 10.5 71 2.8 S 28 44 15 24 - - 0.8
04/02:00am 16.1 10.2 10.6 70 2.9 SSW 32 43 17 23 - - 0.8
04/01:30am 15.7 9.7 10.0 69 3.0 SSW 32 46 17 25 - - 0.8
04/01:00am 15.7 9.6 9.8 68 3.1 SSW 32 46 17 25 - - 0.8
04/12:30am 16.1 10.1 10.2 68 3.1 SSW 32 46 17 25 - - 0.8
04/12:09am 16.3 11.1 10.2 67 3.2 SSW 28 46 15 25 - - 0.8
04/12:00am 16.2 10.4 9.6 65 3.5 SSW 30 43 16 23 - - 0.8
 
Date/Time
EDT
Temp
°C
App
Temp
°C
Dew
Point
Rel
Hum
%
Delta-T
°C
Wind Press
QNH
hPa
Press
MSL
hPa
Rain
since 9 am
mm
Dir
 
Spd
km/h
Gust
km/h
Spd
kts
Gust
kts
03/11:30pm 15.9 9.4 8.9 63 3.6 SSW 33 48 18 26 - - 0.8
03/11:00pm 16.3 11.4 9.9 66 3.4 SSW 26 37 14 20 - - 0.8
03/10:30pm 16.4 11.1 9.8 65 3.5 SSW 28 43 15 23 - - 0.8
03/10:00pm 16.5 10.7 10.8 69 3.1 SSW 32 46 17 25 - - 0.8
03/09:30pm 16.7 11.3 11.0 69 3.1 SSW 30 44 16 24 - - 0.8
03/09:00pm 16.7 10.4 11.0 69 3.1 SSW 35 48 19 26 - - 0.8
03/08:30pm 16.8 11.2 10.0 64 3.6 SSW 30 43 16 23 - - 0.8
03/08:15pm 16.9 10.8 9.8 63 3.7 SSW 32 50 17 27 - - 0.8
03/08:00pm 17.1 11.4 9.8 62 3.9 SSW 30 43 16 23 - - 0.8
03/07:37pm 17.3 11.6 9.7 61 4.0 SSW 30 50 16 27 - - 0.8
03/07:30pm 17.3 11.1 10.0 62 3.9 SSW 33 48 18 26 - - 0.8
03/07:00pm 17.8 12.4 10.9 64 3.7 SSW 30 50 16 27 - - 0.8
03/06:48pm 17.7 12.6 10.6 63 3.8 SSW 28 46 15 25 - - 0.8
03/06:30pm 18.3 12.3 10.7 61 4.1 SSW 33 52 18 28 - - 0.8

Other Formats:

Comma delimited format used in spreadsheet applications
http://www.bom.gov.au/fwo/IDV60801/IDV60801.94846.axf

JavaScript Object Notation format (JSON) in row-major order
http://www.bom.gov.au/fwo/IDV60801/IDV60801.94846.json